createdAt,value
2023-04-19T00:02:21.123Z,7.93
2023-04-19T00:07:22.016Z,7.90
2023-04-19T00:12:22.884Z,7.92
2023-04-19T00:17:23.745Z,7.88
2023-04-19T00:22:25.423Z,7.87
2023-04-19T00:27:26.190Z,7.92
2023-04-19T00:32:27.326Z,7.92
2023-04-19T00:37:28.148Z,7.77
2023-04-19T00:42:29.197Z,7.79
2023-04-19T00:47:30.075Z,7.73
2023-04-19T00:52:33.427Z,7.73
2023-04-19T00:57:34.495Z,7.70
2023-04-19T01:02:35.867Z,7.65
2023-04-19T01:07:36.842Z,7.79
2023-04-19T01:12:37.673Z,7.74
2023-04-19T01:17:38.827Z,7.78
2023-04-19T01:22:39.862Z,7.75
2023-04-19T01:27:40.627Z,7.78
2023-04-19T01:32:41.879Z,7.85
2023-04-19T01:37:42.648Z,7.60
2023-04-19T01:42:44.145Z,7.78
2023-04-19T01:47:45.052Z,7.72
2023-04-19T01:52:45.998Z,7.65
2023-04-19T01:57:46.782Z,7.64
2023-04-19T02:02:47.910Z,7.64
2023-04-19T02:07:49.737Z,7.64
2023-04-19T02:12:50.493Z,7.65
2023-04-19T02:17:51.333Z,7.72
2023-04-19T02:22:53.162Z,7.79
2023-04-19T02:27:54.099Z,7.86
2023-04-19T02:32:55.532Z,7.70
2023-04-19T02:37:56.678Z,7.71
2023-04-19T02:43:00.786Z,7.66
2023-04-19T02:48:01.740Z,7.70
2023-04-19T02:53:02.782Z,7.74
2023-04-19T02:58:04.804Z,7.74
2023-04-19T03:03:08.984Z,7.68
2023-04-19T03:08:10.356Z,7.74
2023-04-19T03:13:11.431Z,7.65
2023-04-19T03:18:12.273Z,7.72
2023-04-19T03:23:15.632Z,7.63
2023-04-19T03:28:16.924Z,7.66
2023-04-19T03:33:44.486Z,7.63
2023-04-19T03:38:46.282Z,7.69
2023-04-19T03:43:52.038Z,7.77
2023-04-19T03:48:54.071Z,7.73
2023-04-19T03:53:56.356Z,7.75
2023-04-19T03:58:57.500Z,7.74
2023-04-19T04:03:58.585Z,7.82
2023-04-19T04:09:00.255Z,7.67
2023-04-19T04:14:01.565Z,7.69
2023-04-19T04:19:05.315Z,7.77
2023-04-19T04:24:07.665Z,7.77
2023-04-19T04:29:14.341Z,7.73
2023-04-19T04:34:15.526Z,7.72
2023-04-19T04:39:22.870Z,7.77
2023-04-19T04:44:23.879Z,7.76
2023-04-19T04:49:26.015Z,7.85
2023-04-19T04:54:27.048Z,7.77
2023-04-19T04:59:29.183Z,7.62
2023-04-19T05:04:31.683Z,7.62
2023-04-19T05:09:32.561Z,7.62
2023-04-19T05:14:33.702Z,7.68
2023-04-19T05:19:35.108Z,7.66
2023-04-19T05:24:41.818Z,7.75
2023-04-19T05:29:43.822Z,7.72
2023-04-19T05:34:45.051Z,7.72
2023-04-19T05:39:47.813Z,7.73
2023-04-19T05:44:48.647Z,7.72
2023-04-19T05:49:50.546Z,7.69
2023-04-19T05:55:07.541Z,7.76
2023-04-19T06:00:09.748Z,7.88
2023-04-19T06:05:29.968Z,7.90
2023-04-19T06:10:40.256Z,8.09
2023-04-19T06:15:50.276Z,8.12
2023-04-19T06:20:53.105Z,8.14
2023-04-19T06:25:53.964Z,8.29
2023-04-19T06:30:54.784Z,8.31
2023-04-19T06:35:55.535Z,8.36
2023-04-19T06:40:56.420Z,8.38
2023-04-19T06:46:00.880Z,8.42
2023-04-19T06:51:01.812Z,8.40
2023-04-19T06:56:04.015Z,8.51
2023-04-19T07:01:05.097Z,8.56
2023-04-19T07:06:06.324Z,8.69
2023-04-19T07:11:07.121Z,8.73
2023-04-19T07:16:07.924Z,8.80
2023-04-19T07:21:09.212Z,8.84
2023-04-19T07:26:10.198Z,8.86
2023-04-19T07:31:16.048Z,8.82
2023-04-19T07:36:16.864Z,8.83
2023-04-19T07:41:17.674Z,8.85
2023-04-19T07:46:18.615Z,8.84
2023-04-19T07:51:19.883Z,8.93
2023-04-19T07:56:22.195Z,9.08
2023-04-19T08:01:23.045Z,9.04
2023-04-19T08:06:23.923Z,9.19
2023-04-19T08:11:24.687Z,9.29
2023-04-19T08:16:56.289Z,9.40
2023-04-19T08:22:12.228Z,9.58
2023-04-19T08:27:13.086Z,9.56
2023-04-19T08:32:13.952Z,9.48
2023-04-19T08:37:15.211Z,9.50
2023-04-19T08:42:28.627Z,9.71
2023-04-19T08:47:48.533Z,9.91
2023-04-19T08:53:12.055Z,9.96
2023-04-19T08:58:36.558Z,9.97
2023-04-19T09:03:56.111Z,10.30
2023-04-19T09:14:24.701Z,10.54
2023-04-19T09:19:25.745Z,10.42
2023-04-19T09:25:18.621Z,10.49
2023-04-19T09:30:43.469Z,10.33
2023-04-19T09:35:48.862Z,10.39
2023-04-19T09:40:50.092Z,10.38
2023-04-19T09:45:50.893Z,10.61
2023-04-19T09:51:04.632Z,10.94
2023-04-19T09:56:11.971Z,11.00
2023-04-19T10:01:16.285Z,10.85
2023-04-19T10:11:26.380Z,10.92
2023-04-19T10:16:29.809Z,11.26
2023-04-19T10:21:31.952Z,11.49
2023-04-19T10:27:07.211Z,11.60
2023-04-19T10:32:12.835Z,11.74
2023-04-19T10:37:13.977Z,11.64
2023-04-19T10:42:14.792Z,11.78
2023-04-19T10:47:40.786Z,11.50
2023-04-19T10:52:41.646Z,11.11
2023-04-19T10:58:05.593Z,11.10
2023-04-19T11:10:15.251Z,11.52
2023-04-19T11:15:16.036Z,11.76
2023-04-19T11:20:16.823Z,12.98
2023-04-19T11:25:20.004Z,13.51
2023-04-19T11:30:27.775Z,13.93
2023-04-19T11:35:29.813Z,13.54
2023-04-19T11:40:31.321Z,13.47
2023-04-19T11:45:38.604Z,13.19
2023-04-19T11:50:43.094Z,13.11
2023-04-19T11:55:50.313Z,13.61
2023-04-19T12:00:51.363Z,13.01
2023-04-19T12:05:56.623Z,12.91
2023-04-19T12:10:59.247Z,13.04
2023-04-19T12:16:00.704Z,13.79
2023-04-19T12:21:03.288Z,13.65
2023-04-19T12:26:07.161Z,14.48
2023-04-19T12:31:07.961Z,13.86
2023-04-19T12:36:09.303Z,13.58
2023-04-19T12:41:10.395Z,13.84
2023-04-19T12:46:11.204Z,13.71
2023-04-19T12:51:12.020Z,13.50
2023-04-19T12:56:14.911Z,13.45
2023-04-19T13:01:16.292Z,13.54
2023-04-19T13:06:17.322Z,13.87
2023-04-19T13:11:22.227Z,14.76
2023-04-19T13:16:23.271Z,14.27
2023-04-19T13:21:24.236Z,13.68
2023-04-19T13:26:25.741Z,13.81
2023-04-19T13:31:26.845Z,14.47
2023-04-19T13:36:27.728Z,13.40
2023-04-19T13:41:28.897Z,13.15
2023-04-19T13:46:30.001Z,13.62
2023-04-19T13:51:42.500Z,13.55
2023-04-19T13:56:52.322Z,14.27
2023-04-19T14:01:55.007Z,14.63
2023-04-19T14:06:55.850Z,14.16
2023-04-19T14:11:56.979Z,14.06
2023-04-19T14:16:57.751Z,13.89
2023-04-19T14:21:59.054Z,14.45
2023-04-19T14:27:10.536Z,14.25
2023-04-19T14:32:24.935Z,14.15
2023-04-19T14:37:27.481Z,13.89
2023-04-19T14:42:28.289Z,14.33
2023-04-19T14:47:29.140Z,14.13
2023-04-19T14:52:30.674Z,13.74
2023-04-19T14:57:31.467Z,13.96
2023-04-19T15:02:32.285Z,13.89
2023-04-19T15:07:33.270Z,13.90
2023-04-19T15:12:34.004Z,12.49
2023-04-19T15:17:35.284Z,12.57
2023-04-19T15:22:36.158Z,12.95
2023-04-19T15:27:37.024Z,13.17
2023-04-19T15:32:37.908Z,12.92
2023-04-19T15:37:40.411Z,13.08
2023-04-19T15:42:41.260Z,12.93
2023-04-19T15:47:42.100Z,13.21
2023-04-19T15:52:42.875Z,13.34
2023-04-19T15:57:44.883Z,13.12
2023-04-19T16:02:47.258Z,13.39
2023-04-19T16:08:01.008Z,13.02
2023-04-19T16:13:05.606Z,13.08
2023-04-19T16:18:06.590Z,12.83
2023-04-19T16:23:07.898Z,12.66
2023-04-19T16:28:08.788Z,12.44
2023-04-19T16:33:10.626Z,12.01
2023-04-19T16:38:11.493Z,11.91
2023-04-19T16:43:12.270Z,11.84
2023-04-19T16:48:13.269Z,11.58
2023-04-19T16:53:14.116Z,11.50
2023-04-19T16:58:14.948Z,11.43
2023-04-19T17:03:15.897Z,11.35
2023-04-19T17:08:16.980Z,11.15
2023-04-19T17:13:17.771Z,11.12
2023-04-19T17:18:18.665Z,10.95
2023-04-19T17:23:20.416Z,10.74
2023-04-19T17:28:21.236Z,10.79
2023-04-19T17:33:22.022Z,10.63
2023-04-19T17:38:22.915Z,10.47
2023-04-19T17:43:27.447Z,10.35
2023-04-19T17:48:28.291Z,10.37
2023-04-19T17:53:29.112Z,10.36
2023-04-19T17:58:30.321Z,10.06
2023-04-19T18:03:31.739Z,9.97
2023-04-19T18:08:32.925Z,9.97
2023-04-19T18:13:36.563Z,9.92
2023-04-19T18:18:37.828Z,9.72
2023-04-19T18:23:38.889Z,9.57
2023-04-19T18:28:39.661Z,9.45
2023-04-19T18:33:40.691Z,9.35
2023-04-19T18:38:41.611Z,9.14
2023-04-19T18:48:43.546Z,9.07
2023-04-19T18:53:45.465Z,8.99
2023-04-19T18:58:49.447Z,8.80
2023-04-19T19:04:10.708Z,8.76
2023-04-19T19:09:25.570Z,8.76
2023-04-19T19:14:26.784Z,8.64
2023-04-19T19:19:28.690Z,8.50
2023-04-19T19:24:29.447Z,8.32
2023-04-19T19:29:30.630Z,8.22
2023-04-19T19:34:33.600Z,8.24
2023-04-19T19:39:39.052Z,8.21
2023-04-19T19:44:39.899Z,8.20
2023-04-19T19:49:57.485Z,8.14
2023-04-19T19:55:14.758Z,8.00
2023-04-19T20:05:20.914Z,8.03
2023-04-19T20:10:22.020Z,7.80
2023-04-19T20:15:22.905Z,7.84
2023-04-19T20:20:23.792Z,7.82
2023-04-19T20:25:24.742Z,7.90
2023-04-19T20:30:25.854Z,7.91
2023-04-19T20:35:26.761Z,7.79
2023-04-19T20:40:29.599Z,7.69
2023-04-19T20:45:30.498Z,7.55
2023-04-19T20:50:31.336Z,7.52
2023-04-19T20:55:32.126Z,7.46
2023-04-19T21:00:32.921Z,7.25
2023-04-19T21:05:34.332Z,7.21
2023-04-19T21:10:35.238Z,7.08
2023-04-19T21:15:36.137Z,7.08
2023-04-19T21:20:37.208Z,7.17
2023-04-19T21:25:37.958Z,7.01
2023-04-19T21:30:40.102Z,6.97
2023-04-19T21:35:40.885Z,6.80
2023-04-19T21:40:41.806Z,6.70
2023-04-19T21:45:42.631Z,6.69
2023-04-19T21:50:43.448Z,6.68
2023-04-19T21:55:46.477Z,6.72
2023-04-19T22:00:48.057Z,6.62
2023-04-19T22:05:48.852Z,6.51
2023-04-19T22:10:49.784Z,6.39
2023-04-19T22:15:51.516Z,6.40
2023-04-19T22:20:53.136Z,6.39
2023-04-19T22:25:54.312Z,6.37
2023-04-19T22:30:55.180Z,6.39
2023-04-19T22:35:56.019Z,6.31
2023-04-19T22:40:56.880Z,6.26
2023-04-19T22:45:57.937Z,6.22
2023-04-19T22:50:59.695Z,6.16
2023-04-19T22:56:00.473Z,6.21
2023-04-19T23:01:02.142Z,6.03
2023-04-19T23:06:03.752Z,6.03
2023-04-19T23:11:05.422Z,5.90
2023-04-19T23:16:10.166Z,5.86
2023-04-19T23:21:11.274Z,5.88
2023-04-19T23:26:12.358Z,5.86
2023-04-19T23:31:13.244Z,5.74
2023-04-19T23:36:14.199Z,5.73
2023-04-19T23:41:15.262Z,5.71
2023-04-19T23:46:16.075Z,5.66
2023-04-19T23:51:16.861Z,5.59
2023-04-19T23:56:17.683Z,5.59
